sensor_id;sensor_type;location;lat;lon;timestamp;P1;durP1;ratioP1;P2;durP2;ratioP2
7166;SDS011;3625;51.762;14.320;2023-01-13T00:01:31;1.37;;;1.27;;
7166;SDS011;3625;51.762;14.320;2023-01-13T00:04:00;1.50;;;1.40;;
7166;SDS011;3625;51.762;14.320;2023-01-13T00:06:30;1.30;;;1.20;;
7166;SDS011;3625;51.762;14.320;2023-01-13T00:08:58;1.37;;;1.27;;
7166;SDS011;3625;51.762;14.320;2023-01-13T00:11:28;1.03;;;1.03;;
7166;SDS011;3625;51.762;14.320;2023-01-13T00:13:56;1.40;;;1.30;;
7166;SDS011;3625;51.762;14.320;2023-01-13T00:16:25;1.40;;;1.30;;
7166;SDS011;3625;51.762;14.320;2023-01-13T00:18:56;1.40;;;1.30;;
7166;SDS011;3625;51.762;14.320;2023-01-13T00:21:24;1.60;;;1.47;;
7166;SDS011;3625;51.762;14.320;2023-01-13T00:23:53;1.50;;;1.40;;
7166;SDS011;3625;51.762;14.320;2023-01-13T00:26:23;1.30;;;1.20;;
7166;SDS011;3625;51.762;14.320;2023-01-13T00:28:58;1.40;;;1.30;;
7166;SDS011;3625;51.762;14.320;2023-01-13T00:31:27;1.30;;;1.20;;
7166;SDS011;3625;51.762;14.320;2023-01-13T00:33:57;1.50;;;1.40;;
7166;SDS011;3625;51.762;14.320;2023-01-13T00:36:27;2.07;;;1.40;;
7166;SDS011;3625;51.762;14.320;2023-01-13T00:38:57;1.37;;;1.27;;
7166;SDS011;3625;51.762;14.320;2023-01-13T00:41:25;1.37;;;1.27;;
7166;SDS011;3625;51.762;14.320;2023-01-13T00:43:54;1.40;;;1.30;;
7166;SDS011;3625;51.762;14.320;2023-01-13T00:46:23;1.57;;;1.40;;
7166;SDS011;3625;51.762;14.320;2023-01-13T00:48:51;1.40;;;1.30;;
7166;SDS011;3625;51.762;14.320;2023-01-13T00:51:20;1.30;;;1.20;;
7166;SDS011;3625;51.762;14.320;2023-01-13T00:53:49;1.43;;;1.10;;
7166;SDS011;3625;51.762;14.320;2023-01-13T00:56:19;1.30;;;1.30;;
7166;SDS011;3625;51.762;14.320;2023-01-13T00:59:05;1.67;;;1.20;;
7166;SDS011;3625;51.762;14.320;2023-01-13T01:01:38;1.30;;;1.20;;
7166;SDS011;3625;51.762;14.320;2023-01-13T01:04:07;1.30;;;1.20;;
7166;SDS011;3625;51.762;14.320;2023-01-13T01:06:36;1.50;;;1.10;;
7166;SDS011;3625;51.762;14.320;2023-01-13T01:09:05;1.70;;;1.20;;
7166;SDS011;3625;51.762;14.320;2023-01-13T01:11:33;1.30;;;1.20;;
7166;SDS011;3625;51.762;14.320;2023-01-13T01:14:02;1.30;;;1.20;;
7166;SDS011;3625;51.762;14.320;2023-01-13T01:16:31;1.20;;;1.10;;
7166;SDS011;3625;51.762;14.320;2023-01-13T01:19:02;1.30;;;1.20;;
7166;SDS011;3625;51.762;14.320;2023-01-13T01:21:31;1.33;;;1.23;;
7166;SDS011;3625;51.762;14.320;2023-01-13T01:24:02;1.17;;;1.17;;
7166;SDS011;3625;51.762;14.320;2023-01-13T01:26:31;1.17;;;1.17;;
7166;SDS011;3625;51.762;14.320;2023-01-13T01:29:00;1.47;;;1.20;;
7166;SDS011;3625;51.762;14.320;2023-01-13T01:31:29;1.20;;;1.10;;
7166;SDS011;3625;51.762;14.320;2023-01-13T01:34:03;1.93;;;1.20;;
7166;SDS011;3625;51.762;14.320;2023-01-13T01:36:32;1.23;;;1.13;;
7166;SDS011;3625;51.762;14.320;2023-01-13T01:39:02;1.40;;;1.27;;
7166;SDS011;3625;51.762;14.320;2023-01-13T01:41:33;1.20;;;1.20;;
7166;SDS011;3625;51.762;14.320;2023-01-13T01:44:04;1.50;;;1.40;;
7166;SDS011;3625;51.762;14.320;2023-01-13T01:46:54;1.20;;;1.10;;
7166;SDS011;3625;51.762;14.320;2023-01-13T01:49:26;1.20;;;1.10;;
7166;SDS011;3625;51.762;14.320;2023-01-13T01:52:01;1.40;;;1.30;;
7166;SDS011;3625;51.762;14.320;2023-01-13T01:54:36;1.43;;;1.30;;
7166;SDS011;3625;51.762;14.320;2023-01-13T01:57:12;1.40;;;1.10;;
7166;SDS011;3625;51.762;14.320;2023-01-13T01:59:46;1.33;;;1.23;;
7166;SDS011;3625;51.762;14.320;2023-01-13T02:02:14;1.33;;;1.20;;
7166;SDS011;3625;51.762;14.320;2023-01-13T02:04:46;1.43;;;1.23;;
7166;SDS011;3625;51.762;14.320;2023-01-13T02:07:20;1.10;;;1.10;;
7166;SDS011;3625;51.762;14.320;2023-01-13T02:09:54;1.50;;;1.40;;
7166;SDS011;3625;51.762;14.320;2023-01-13T02:12:25;1.43;;;1.30;;
7166;SDS011;3625;51.762;14.320;2023-01-13T02:14:58;1.73;;;1.30;;
7166;SDS011;3625;51.762;14.320;2023-01-13T02:20:37;1.83;;;1.70;;
7166;SDS011;3625;51.762;14.320;2023-01-13T02:27:12;1.10;;;1.10;;
7166;SDS011;3625;51.762;14.320;2023-01-13T02:30:10;1.30;;;1.20;;
7166;SDS011;3625;51.762;14.320;2023-01-13T02:33:19;1.10;;;1.10;;
7166;SDS011;3625;51.762;14.320;2023-01-13T02:36:04;1.10;;;1.10;;
7166;SDS011;3625;51.762;14.320;2023-01-13T02:38:44;1.67;;;1.13;;
7166;SDS011;3625;51.762;14.320;2023-01-13T02:41:24;1.20;;;1.20;;
7166;SDS011;3625;51.762;14.320;2023-01-13T02:44:19;1.23;;;1.20;;
7166;SDS011;3625;51.762;14.320;2023-01-13T02:46:57;1.50;;;1.40;;
7166;SDS011;3625;51.762;14.320;2023-01-13T02:49:33;1.20;;;1.10;;
7166;SDS011;3625;51.762;14.320;2023-01-13T02:52:08;1.73;;;1.10;;
7166;SDS011;3625;51.762;14.320;2023-01-13T02:54:43;1.90;;;1.30;;
7166;SDS011;3625;51.762;14.320;2023-01-13T02:57:19;1.30;;;1.20;;
7166;SDS011;3625;51.762;14.320;2023-01-13T02:59:51;1.10;;;1.10;;
7166;SDS011;3625;51.762;14.320;2023-01-13T03:02:24;1.20;;;1.20;;
7166;SDS011;3625;51.762;14.320;2023-01-13T03:04:54;1.20;;;1.20;;
7166;SDS011;3625;51.762;14.320;2023-01-13T03:10:45;1.47;;;1.13;;
7166;SDS011;3625;51.762;14.320;2023-01-13T03:16:46;1.30;;;1.20;;
7166;SDS011;3625;51.762;14.320;2023-01-13T03:19:33;1.20;;;1.20;;
7166;SDS011;3625;51.762;14.320;2023-01-13T03:22:13;1.40;;;1.30;;
7166;SDS011;3625;51.762;14.320;2023-01-13T03:24:51;1.40;;;1.30;;
7166;SDS011;3625;51.762;14.320;2023-01-13T03:27:29;1.33;;;1.20;;
7166;SDS011;3625;51.762;14.320;2023-01-13T03:30:08;1.20;;;1.10;;
7166;SDS011;3625;51.762;14.320;2023-01-13T03:32:46;1.10;;;1.10;;
7166;SDS011;3625;51.762;14.320;2023-01-13T03:35:24;1.53;;;1.40;;
7166;SDS011;3625;51.762;14.320;2023-01-13T03:37:59;1.10;;;1.10;;
7166;SDS011;3625;51.762;14.320;2023-01-13T03:40:34;1.20;;;1.10;;
7166;SDS011;3625;51.762;14.320;2023-01-13T03:43:13;1.73;;;1.23;;
7166;SDS011;3625;51.762;14.320;2023-01-13T03:46:07;1.83;;;1.20;;
7166;SDS011;3625;51.762;14.320;2023-01-13T03:48:57;1.43;;;1.20;;
7166;SDS011;3625;51.762;14.320;2023-01-13T03:51:36;1.30;;;1.20;;
7166;SDS011;3625;51.762;14.320;2023-01-13T03:54:10;1.43;;;1.20;;
7166;SDS011;3625;51.762;14.320;2023-01-13T03:56:42;1.10;;;1.10;;
7166;SDS011;3625;51.762;14.320;2023-01-13T03:59:16;1.70;;;1.60;;
7166;SDS011;3625;51.762;14.320;2023-01-13T04:01:51;1.17;;;1.17;;
7166;SDS011;3625;51.762;14.320;2023-01-13T04:04:28;1.47;;;1.37;;
7166;SDS011;3625;51.762;14.320;2023-01-13T04:07:06;1.70;;;1.30;;
7166;SDS011;3625;51.762;14.320;2023-01-13T04:09:47;1.00;;;1.00;;
7166;SDS011;3625;51.762;14.320;2023-01-13T04:12:22;1.50;;;1.40;;
7166;SDS011;3625;51.762;14.320;2023-01-13T04:15:16;1.37;;;1.23;;
7166;SDS011;3625;51.762;14.320;2023-01-13T04:17:49;1.40;;;1.30;;
7166;SDS011;3625;51.762;14.320;2023-01-13T04:20:18;1.30;;;1.20;;
7166;SDS011;3625;51.762;14.320;2023-01-13T04:22:49;1.50;;;1.40;;
7166;SDS011;3625;51.762;14.320;2023-01-13T04:25:17;1.13;;;1.10;;
7166;SDS011;3625;51.762;14.320;2023-01-13T04:27:46;1.80;;;1.20;;
7166;SDS011;3625;51.762;14.320;2023-01-13T04:30:14;1.27;;;1.20;;
7166;SDS011;3625;51.762;14.320;2023-01-13T04:32:44;1.10;;;1.10;;
7166;SDS011;3625;51.762;14.320;2023-01-13T04:35:12;1.30;;;1.20;;
7166;SDS011;3625;51.762;14.320;2023-01-13T04:37:41;1.83;;;1.10;;
7166;SDS011;3625;51.762;14.320;2023-01-13T04:40:11;1.13;;;1.10;;
7166;SDS011;3625;51.762;14.320;2023-01-13T04:42:41;1.60;;;1.50;;
7166;SDS011;3625;51.762;14.320;2023-01-13T04:45:11;1.40;;;1.30;;
7166;SDS011;3625;51.762;14.320;2023-01-13T04:47:39;2.23;;;1.37;;
7166;SDS011;3625;51.762;14.320;2023-01-13T04:50:09;1.40;;;1.30;;
7166;SDS011;3625;51.762;14.320;2023-01-13T04:52:38;2.43;;;1.30;;
7166;SDS011;3625;51.762;14.320;2023-01-13T04:55:07;1.57;;;1.33;;
7166;SDS011;3625;51.762;14.320;2023-01-13T04:57:38;1.30;;;1.20;;
7166;SDS011;3625;51.762;14.320;2023-01-13T05:00:08;1.60;;;1.40;;
7166;SDS011;3625;51.762;14.320;2023-01-13T05:02:39;1.43;;;1.33;;
7166;SDS011;3625;51.762;14.320;2023-01-13T05:05:08;1.40;;;1.30;;
7166;SDS011;3625;51.762;14.320;2023-01-13T05:07:38;1.40;;;1.30;;
7166;SDS011;3625;51.762;14.320;2023-01-13T05:10:06;2.50;;;1.20;;
7166;SDS011;3625;51.762;14.320;2023-01-13T05:12:38;1.27;;;1.20;;
7166;SDS011;3625;51.762;14.320;2023-01-13T05:15:24;1.27;;;1.17;;
7166;SDS011;3625;51.762;14.320;2023-01-13T05:18:10;1.40;;;1.30;;
7166;SDS011;3625;51.762;14.320;2023-01-13T05:20:39;1.30;;;1.20;;
7166;SDS011;3625;51.762;14.320;2023-01-13T05:23:08;1.23;;;1.20;;
7166;SDS011;3625;51.762;14.320;2023-01-13T05:25:54;1.20;;;1.10;;
7166;SDS011;3625;51.762;14.320;2023-01-13T05:28:23;1.63;;;1.23;;
7166;SDS011;3625;51.762;14.320;2023-01-13T05:30:55;1.40;;;1.30;;
7166;SDS011;3625;51.762;14.320;2023-01-13T05:33:24;1.23;;;1.20;;
7166;SDS011;3625;51.762;14.320;2023-01-13T05:35:52;1.33;;;1.23;;
7166;SDS011;3625;51.762;14.320;2023-01-13T05:38:21;2.70;;;1.50;;
7166;SDS011;3625;51.762;14.320;2023-01-13T05:40:49;1.30;;;1.20;;
7166;SDS011;3625;51.762;14.320;2023-01-13T05:43:37;1.30;;;1.20;;
7166;SDS011;3625;51.762;14.320;2023-01-13T05:46:05;1.43;;;1.20;;
7166;SDS011;3625;51.762;14.320;2023-01-13T05:48:37;2.63;;;1.23;;
7166;SDS011;3625;51.762;14.320;2023-01-13T05:51:10;1.30;;;1.20;;
7166;SDS011;3625;51.762;14.320;2023-01-13T05:53:39;1.60;;;1.50;;
7166;SDS011;3625;51.762;14.320;2023-01-13T05:56:08;1.20;;;1.20;;
7166;SDS011;3625;51.762;14.320;2023-01-13T05:58:40;1.97;;;1.30;;
7166;SDS011;3625;51.762;14.320;2023-01-13T06:01:08;1.97;;;1.30;;
7166;SDS011;3625;51.762;14.320;2023-01-13T06:03:37;1.27;;;1.23;;
7166;SDS011;3625;51.762;14.320;2023-01-13T06:06:06;1.83;;;1.50;;
7166;SDS011;3625;51.762;14.320;2023-01-13T06:08:35;1.30;;;1.20;;
7166;SDS011;3625;51.762;14.320;2023-01-13T06:11:08;2.00;;;1.40;;
7166;SDS011;3625;51.762;14.320;2023-01-13T06:13:36;1.83;;;1.10;;
7166;SDS011;3625;51.762;14.320;2023-01-13T06:16:06;1.40;;;1.30;;
7166;SDS011;3625;51.762;14.320;2023-01-13T06:18:36;1.30;;;1.20;;
7166;SDS011;3625;51.762;14.320;2023-01-13T06:21:04;1.30;;;1.20;;
7166;SDS011;3625;51.762;14.320;2023-01-13T06:23:33;1.30;;;1.20;;
7166;SDS011;3625;51.762;14.320;2023-01-13T06:26:04;1.23;;;1.13;;
7166;SDS011;3625;51.762;14.320;2023-01-13T06:28:40;1.20;;;1.10;;
7166;SDS011;3625;51.762;14.320;2023-01-13T06:34:06;1.63;;;1.20;;
7166;SDS011;3625;51.762;14.320;2023-01-13T06:36:40;1.30;;;1.20;;
7166;SDS011;3625;51.762;14.320;2023-01-13T06:39:15;1.40;;;1.30;;
7166;SDS011;3625;51.762;14.320;2023-01-13T06:41:48;1.20;;;1.20;;
7166;SDS011;3625;51.762;14.320;2023-01-13T06:44:37;1.47;;;1.23;;
7166;SDS011;3625;51.762;14.320;2023-01-13T06:47:07;1.30;;;1.20;;
7166;SDS011;3625;51.762;14.320;2023-01-13T06:49:36;1.48;;;1.38;;
7166;SDS011;3625;51.762;14.320;2023-01-13T06:52:05;1.30;;;1.20;;
7166;SDS011;3625;51.762;14.320;2023-01-13T06:54:33;1.30;;;1.20;;
7166;SDS011;3625;51.762;14.320;2023-01-13T06:57:02;1.43;;;1.20;;
7166;SDS011;3625;51.762;14.320;2023-01-13T06:59:34;1.73;;;1.23;;
7166;SDS011;3625;51.762;14.320;2023-01-13T07:02:03;1.10;;;1.10;;
7166;SDS011;3625;51.762;14.320;2023-01-13T07:04:33;1.90;;;1.30;;
7166;SDS011;3625;51.762;14.320;2023-01-13T07:07:02;1.60;;;1.20;;
7166;SDS011;3625;51.762;14.320;2023-01-13T07:09:30;1.37;;;1.17;;
7166;SDS011;3625;51.762;14.320;2023-01-13T07:12:00;1.97;;;1.20;;
7166;SDS011;3625;51.762;14.320;2023-01-13T07:14:29;1.17;;;1.17;;
7166;SDS011;3625;51.762;14.320;2023-01-13T07:17:24;1.60;;;1.27;;
7166;SDS011;3625;51.762;14.320;2023-01-13T07:19:54;1.20;;;1.10;;
7166;SDS011;3625;51.762;14.320;2023-01-13T07:22:23;1.60;;;1.23;;
7166;SDS011;3625;51.762;14.320;2023-01-13T07:24:51;1.10;;;1.10;;
7166;SDS011;3625;51.762;14.320;2023-01-13T07:27:20;1.10;;;1.10;;
7166;SDS011;3625;51.762;14.320;2023-01-13T07:29:49;1.77;;;1.20;;
7166;SDS011;3625;51.762;14.320;2023-01-13T07:32:17;1.20;;;1.10;;
7166;SDS011;3625;51.762;14.320;2023-01-13T07:34:46;1.07;;;1.07;;
7166;SDS011;3625;51.762;14.320;2023-01-13T07:37:15;1.53;;;1.10;;
7166;SDS011;3625;51.762;14.320;2023-01-13T07:39:47;1.35;;;1.10;;
7166;SDS011;3625;51.762;14.320;2023-01-13T07:42:15;1.20;;;1.10;;
7166;SDS011;3625;51.762;14.320;2023-01-13T07:45:01;1.60;;;1.40;;
7166;SDS011;3625;51.762;14.320;2023-01-13T07:47:30;1.20;;;1.10;;
7166;SDS011;3625;51.762;14.320;2023-01-13T07:49:59;1.37;;;1.27;;
7166;SDS011;3625;51.762;14.320;2023-01-13T07:52:29;1.43;;;1.03;;
7166;SDS011;3625;51.762;14.320;2023-01-13T07:54:59;1.20;;;1.10;;
7166;SDS011;3625;51.762;14.320;2023-01-13T07:57:46;1.67;;;1.20;;
7166;SDS011;3625;51.762;14.320;2023-01-13T08:00:15;1.20;;;1.10;;
7166;SDS011;3625;51.762;14.320;2023-01-13T08:02:45;1.30;;;1.20;;
7166;SDS011;3625;51.762;14.320;2023-01-13T08:05:13;1.40;;;1.30;;
7166;SDS011;3625;51.762;14.320;2023-01-13T08:07:46;1.60;;;1.17;;
7166;SDS011;3625;51.762;14.320;2023-01-13T08:10:17;1.30;;;1.20;;
7166;SDS011;3625;51.762;14.320;2023-01-13T08:12:46;1.60;;;1.20;;
7166;SDS011;3625;51.762;14.320;2023-01-13T08:15:32;1.40;;;1.30;;
7166;SDS011;3625;51.762;14.320;2023-01-13T08:18:03;1.27;;;1.03;;
7166;SDS011;3625;51.762;14.320;2023-01-13T08:20:31;1.13;;;1.07;;
7166;SDS011;3625;51.762;14.320;2023-01-13T08:23:01;1.35;;;1.10;;
7166;SDS011;3625;51.762;14.320;2023-01-13T08:25:32;1.50;;;1.40;;
7166;SDS011;3625;51.762;14.320;2023-01-13T08:28:02;1.20;;;1.10;;
7166;SDS011;3625;51.762;14.320;2023-01-13T08:30:31;1.73;;;1.17;;
7166;SDS011;3625;51.762;14.320;2023-01-13T08:33:00;1.10;;;1.10;;
7166;SDS011;3625;51.762;14.320;2023-01-13T08:35:28;1.27;;;1.20;;
7166;SDS011;3625;51.762;14.320;2023-01-13T08:37:57;3.40;;;1.65;;
7166;SDS011;3625;51.762;14.320;2023-01-13T08:40:27;1.20;;;1.20;;
7166;SDS011;3625;51.762;14.320;2023-01-13T08:42:56;1.52;;;1.33;;
7166;SDS011;3625;51.762;14.320;2023-01-13T08:45:25;1.50;;;1.40;;
7166;SDS011;3625;51.762;14.320;2023-01-13T08:47:54;1.13;;;1.02;;
7166;SDS011;3625;51.762;14.320;2023-01-13T08:50:22;1.65;;;1.15;;
7166;SDS011;3625;51.762;14.320;2023-01-13T08:52:51;1.20;;;1.10;;
7166;SDS011;3625;51.762;14.320;2023-01-13T08:55:21;1.05;;;1.00;;
7166;SDS011;3625;51.762;14.320;2023-01-13T08:57:52;1.20;;;1.10;;
7166;SDS011;3625;51.762;14.320;2023-01-13T09:00:39;1.52;;;1.00;;
7166;SDS011;3625;51.762;14.320;2023-01-13T09:03:09;0.93;;;0.93;;
7166;SDS011;3625;51.762;14.320;2023-01-13T09:05:38;2.78;;;1.30;;
7166;SDS011;3625;51.762;14.320;2023-01-13T09:08:06;1.60;;;1.50;;
7166;SDS011;3625;51.762;14.320;2023-01-13T09:10:35;1.40;;;1.30;;
7166;SDS011;3625;51.762;14.320;2023-01-13T09:13:10;1.92;;;1.20;;
7166;SDS011;3625;51.762;14.320;2023-01-13T09:15:39;1.20;;;1.10;;
7166;SDS011;3625;51.762;14.320;2023-01-13T09:18:11;1.30;;;1.20;;
7166;SDS011;3625;51.762;14.320;2023-01-13T09:20:40;1.40;;;1.30;;
7166;SDS011;3625;51.762;14.320;2023-01-13T09:23:09;1.33;;;1.23;;
7166;SDS011;3625;51.762;14.320;2023-01-13T09:25:38;2.40;;;1.20;;
7166;SDS011;3625;51.762;14.320;2023-01-13T09:28:06;1.10;;;1.10;;
7166;SDS011;3625;51.762;14.320;2023-01-13T09:30:37;1.30;;;1.20;;
7166;SDS011;3625;51.762;14.320;2023-01-13T09:33:05;1.17;;;1.10;;
7166;SDS011;3625;51.762;14.320;2023-01-13T09:35:56;1.30;;;1.10;;
7166;SDS011;3625;51.762;14.320;2023-01-13T09:38:26;1.63;;;1.53;;
7166;SDS011;3625;51.762;14.320;2023-01-13T09:40:55;1.83;;;1.20;;
7166;SDS011;3625;51.762;14.320;2023-01-13T09:43:24;1.27;;;1.17;;
7166;SDS011;3625;51.762;14.320;2023-01-13T09:46:21;1.40;;;1.30;;
7166;SDS011;3625;51.762;14.320;2023-01-13T09:49:13;1.70;;;1.23;;
7166;SDS011;3625;51.762;14.320;2023-01-13T09:51:50;2.10;;;1.30;;
7166;SDS011;3625;51.762;14.320;2023-01-13T09:54:29;1.70;;;1.30;;
7166;SDS011;3625;51.762;14.320;2023-01-13T09:57:06;1.77;;;1.50;;
7166;SDS011;3625;51.762;14.320;2023-01-13T09:59:38;1.47;;;1.27;;
7166;SDS011;3625;51.762;14.320;2023-01-13T10:02:28;1.13;;;1.13;;
7166;SDS011;3625;51.762;14.320;2023-01-13T10:05:10;1.83;;;1.33;;
7166;SDS011;3625;51.762;14.320;2023-01-13T10:07:47;1.50;;;1.27;;
7166;SDS011;3625;51.762;14.320;2023-01-13T10:10:29;1.30;;;1.20;;
7166;SDS011;3625;51.762;14.320;2023-01-13T10:13:14;1.40;;;1.30;;
7166;SDS011;3625;51.762;14.320;2023-01-13T10:15:51;1.27;;;1.00;;
7166;SDS011;3625;51.762;14.320;2023-01-13T10:18:59;1.48;;;1.10;;
7166;SDS011;3625;51.762;14.320;2023-01-13T10:21:49;1.47;;;1.20;;
7166;SDS011;3625;51.762;14.320;2023-01-13T10:24:47;1.33;;;1.10;;
7166;SDS011;3625;51.762;14.320;2023-01-13T10:27:46;1.33;;;1.23;;
7166;SDS011;3625;51.762;14.320;2023-01-13T10:30:21;1.10;;;1.10;;
7166;SDS011;3625;51.762;14.320;2023-01-13T10:32:57;1.60;;;1.50;;
7166;SDS011;3625;51.762;14.320;2023-01-13T10:35:49;1.70;;;1.60;;
7166;SDS011;3625;51.762;14.320;2023-01-13T10:38:26;1.67;;;1.58;;
7166;SDS011;3625;51.762;14.320;2023-01-13T10:41:04;1.50;;;1.27;;
7166;SDS011;3625;51.762;14.320;2023-01-13T10:43:56;1.30;;;1.10;;
7166;SDS011;3625;51.762;14.320;2023-01-13T10:46:48;1.97;;;1.13;;
7166;SDS011;3625;51.762;14.320;2023-01-13T10:49:24;1.20;;;1.10;;
7166;SDS011;3625;51.762;14.320;2023-01-13T10:52:00;1.27;;;1.10;;
7166;SDS011;3625;51.762;14.320;2023-01-13T10:54:53;1.30;;;1.20;;
7166;SDS011;3625;51.762;14.320;2023-01-13T10:57:22;1.77;;;1.10;;
7166;SDS011;3625;51.762;14.320;2023-01-13T10:59:53;2.47;;;1.27;;
7166;SDS011;3625;51.762;14.320;2023-01-13T11:02:26;1.20;;;1.10;;
7166;SDS011;3625;51.762;14.320;2023-01-13T11:04:58;1.30;;;1.20;;
7166;SDS011;3625;51.762;14.320;2023-01-13T11:07:47;2.60;;;1.30;;
7166;SDS011;3625;51.762;14.320;2023-01-13T11:10:22;1.80;;;1.10;;
7166;SDS011;3625;51.762;14.320;2023-01-13T11:12:57;1.65;;;1.50;;
7166;SDS011;3625;51.762;14.320;2023-01-13T11:15:37;2.33;;;1.17;;
7166;SDS011;3625;51.762;14.320;2023-01-13T11:18:15;2.20;;;1.27;;
7166;SDS011;3625;51.762;14.320;2023-01-13T11:20:52;1.27;;;1.17;;
7166;SDS011;3625;51.762;14.320;2023-01-13T11:23:28;1.50;;;1.40;;
7166;SDS011;3625;51.762;14.320;2023-01-13T11:26:05;1.50;;;1.30;;
7166;SDS011;3625;51.762;14.320;2023-01-13T11:28:45;1.30;;;1.20;;
7166;SDS011;3625;51.762;14.320;2023-01-13T11:31:25;1.30;;;1.20;;
7166;SDS011;3625;51.762;14.320;2023-01-13T11:34:01;1.30;;;1.20;;
7166;SDS011;3625;51.762;14.320;2023-01-13T11:36:39;1.50;;;1.40;;
7166;SDS011;3625;51.762;14.320;2023-01-13T11:39:19;2.60;;;1.43;;
7166;SDS011;3625;51.762;14.320;2023-01-13T11:41:57;1.37;;;1.27;;
7166;SDS011;3625;51.762;14.320;2023-01-13T11:44:52;1.30;;;1.20;;
7166;SDS011;3625;51.762;14.320;2023-01-13T11:47:31;1.53;;;1.40;;
7166;SDS011;3625;51.762;14.320;2023-01-13T11:50:01;1.33;;;1.23;;
7166;SDS011;3625;51.762;14.320;2023-01-13T11:52:46;1.60;;;1.50;;
7166;SDS011;3625;51.762;14.320;2023-01-13T11:55:46;1.50;;;1.40;;
7166;SDS011;3625;51.762;14.320;2023-01-13T12:01:39;1.63;;;1.40;;
7166;SDS011;3625;51.762;14.320;2023-01-13T12:04:31;2.20;;;1.30;;
7166;SDS011;3625;51.762;14.320;2023-01-13T12:07:13;1.70;;;1.30;;
7166;SDS011;3625;51.762;14.320;2023-01-13T12:09:54;1.53;;;1.43;;
7166;SDS011;3625;51.762;14.320;2023-01-13T12:12:43;1.47;;;1.37;;
7166;SDS011;3625;51.762;14.320;2023-01-13T12:15:30;4.53;;;1.47;;
7166;SDS011;3625;51.762;14.320;2023-01-13T12:18:29;2.60;;;1.43;;
7166;SDS011;3625;51.762;14.320;2023-01-13T12:21:19;2.07;;;1.60;;
7166;SDS011;3625;51.762;14.320;2023-01-13T12:23:57;1.50;;;1.40;;
7166;SDS011;3625;51.762;14.320;2023-01-13T12:26:39;1.80;;;1.50;;
7166;SDS011;3625;51.762;14.320;2023-01-13T12:29:19;2.93;;;1.87;;
7166;SDS011;3625;51.762;14.320;2023-01-13T12:31:58;1.50;;;1.40;;
7166;SDS011;3625;51.762;14.320;2023-01-13T12:34:34;2.00;;;1.40;;
7166;SDS011;3625;51.762;14.320;2023-01-13T12:37:21;2.43;;;1.40;;
7166;SDS011;3625;51.762;14.320;2023-01-13T12:40:11;2.13;;;1.90;;
7166;SDS011;3625;51.762;14.320;2023-01-13T12:42:57;2.33;;;1.60;;
7166;SDS011;3625;51.762;14.320;2023-01-13T12:49:22;1.80;;;1.70;;
7166;SDS011;3625;51.762;14.320;2023-01-13T12:52:02;1.60;;;1.30;;
7166;SDS011;3625;51.762;14.320;2023-01-13T12:55:02;1.53;;;1.40;;
7166;SDS011;3625;51.762;14.320;2023-01-13T12:58:13;2.40;;;1.33;;
7166;SDS011;3625;51.762;14.320;2023-01-13T13:00:54;1.40;;;1.30;;
7166;SDS011;3625;51.762;14.320;2023-01-13T13:03:30;2.20;;;1.60;;
7166;SDS011;3625;51.762;14.320;2023-01-13T13:06:11;1.50;;;1.40;;
7166;SDS011;3625;51.762;14.320;2023-01-13T13:11:39;2.10;;;1.90;;
7166;SDS011;3625;51.762;14.320;2023-01-13T13:17:40;1.60;;;1.50;;
7166;SDS011;3625;51.762;14.320;2023-01-13T13:23:28;1.57;;;1.47;;
7166;SDS011;3625;51.762;14.320;2023-01-13T13:26:17;1.30;;;1.20;;
7166;SDS011;3625;51.762;14.320;2023-01-13T13:29:05;1.60;;;1.50;;
7166;SDS011;3625;51.762;14.320;2023-01-13T13:35:22;2.37;;;1.60;;
7166;SDS011;3625;51.762;14.320;2023-01-13T13:38:11;2.07;;;1.30;;
7166;SDS011;3625;51.762;14.320;2023-01-13T13:41:16;3.73;;;1.87;;
7166;SDS011;3625;51.762;14.320;2023-01-13T13:44:07;2.37;;;1.30;;
7166;SDS011;3625;51.762;14.320;2023-01-13T13:47:01;1.27;;;1.17;;
7166;SDS011;3625;51.762;14.320;2023-01-13T13:49:34;1.97;;;1.30;;
7166;SDS011;3625;51.762;14.320;2023-01-13T13:52:08;2.77;;;1.40;;
7166;SDS011;3625;51.762;14.320;2023-01-13T13:54:46;1.50;;;1.30;;
7166;SDS011;3625;51.762;14.320;2023-01-13T13:57:19;1.87;;;1.33;;
7166;SDS011;3625;51.762;14.320;2023-01-13T13:59:55;2.57;;;1.40;;
7166;SDS011;3625;51.762;14.320;2023-01-13T14:02:27;3.30;;;1.40;;
7166;SDS011;3625;51.762;14.320;2023-01-13T14:05:14;2.30;;;1.90;;
7166;SDS011;3625;51.762;14.320;2023-01-13T14:07:46;3.00;;;1.40;;
7166;SDS011;3625;51.762;14.320;2023-01-13T14:10:19;1.80;;;1.50;;
7166;SDS011;3625;51.762;14.320;2023-01-13T14:12:53;4.40;;;2.27;;
7166;SDS011;3625;51.762;14.320;2023-01-13T14:15:23;1.83;;;1.40;;
7166;SDS011;3625;51.762;14.320;2023-01-13T14:18:01;2.87;;;1.63;;
7166;SDS011;3625;51.762;14.320;2023-01-13T14:20:32;2.90;;;1.80;;
7166;SDS011;3625;51.762;14.320;2023-01-13T14:23:02;1.97;;;1.80;;
7166;SDS011;3625;51.762;14.320;2023-01-13T14:25:34;2.17;;;1.63;;
7166;SDS011;3625;51.762;14.320;2023-01-13T14:28:13;1.50;;;1.40;;
7166;SDS011;3625;51.762;14.320;2023-01-13T14:30:49;1.77;;;1.43;;
7166;SDS011;3625;51.762;14.320;2023-01-13T14:33:21;2.33;;;1.50;;
7166;SDS011;3625;51.762;14.320;2023-01-13T14:36:05;2.83;;;1.70;;
7166;SDS011;3625;51.762;14.320;2023-01-13T14:38:46;2.83;;;1.60;;
7166;SDS011;3625;51.762;14.320;2023-01-13T14:41:22;2.77;;;1.80;;
7166;SDS011;3625;51.762;14.320;2023-01-13T14:43:55;2.03;;;1.83;;
7166;SDS011;3625;51.762;14.320;2023-01-13T14:46:39;1.70;;;1.60;;
7166;SDS011;3625;51.762;14.320;2023-01-13T14:49:15;3.27;;;2.00;;
7166;SDS011;3625;51.762;14.320;2023-01-13T14:51:52;4.40;;;1.90;;
7166;SDS011;3625;51.762;14.320;2023-01-13T14:54:40;2.33;;;1.70;;
7166;SDS011;3625;51.762;14.320;2023-01-13T14:57:15;3.07;;;2.10;;
7166;SDS011;3625;51.762;14.320;2023-01-13T14:59:58;1.90;;;1.67;;
7166;SDS011;3625;51.762;14.320;2023-01-13T15:02:37;3.50;;;2.00;;
7166;SDS011;3625;51.762;14.320;2023-01-13T15:05:22;2.07;;;1.50;;
7166;SDS011;3625;51.762;14.320;2023-01-13T15:11:04;1.97;;;1.80;;
7166;SDS011;3625;51.762;14.320;2023-01-13T15:13:47;3.20;;;1.80;;
7166;SDS011;3625;51.762;14.320;2023-01-13T15:16:24;2.80;;;1.87;;
7166;SDS011;3625;51.762;14.320;2023-01-13T15:18:55;2.53;;;1.80;;
7166;SDS011;3625;51.762;14.320;2023-01-13T15:21:24;4.87;;;2.27;;
7166;SDS011;3625;51.762;14.320;2023-01-13T15:23:54;2.30;;;2.10;;
7166;SDS011;3625;51.762;14.320;2023-01-13T15:26:23;4.67;;;2.20;;
7166;SDS011;3625;51.762;14.320;2023-01-13T15:28:56;2.43;;;1.90;;
7166;SDS011;3625;51.762;14.320;2023-01-13T15:31:26;3.30;;;2.17;;
7166;SDS011;3625;51.762;14.320;2023-01-13T15:33:55;2.23;;;1.90;;
7166;SDS011;3625;51.762;14.320;2023-01-13T15:36:28;4.43;;;3.10;;
7166;SDS011;3625;51.762;14.320;2023-01-13T15:39:00;2.57;;;1.90;;
7166;SDS011;3625;51.762;14.320;2023-01-13T15:41:28;2.27;;;2.07;;
7166;SDS011;3625;51.762;14.320;2023-01-13T15:44:16;7.00;;;3.43;;
7166;SDS011;3625;51.762;14.320;2023-01-13T15:47:03;2.87;;;2.57;;
7166;SDS011;3625;51.762;14.320;2023-01-13T15:49:36;4.30;;;2.53;;
7166;SDS011;3625;51.762;14.320;2023-01-13T15:52:14;2.37;;;2.13;;
7166;SDS011;3625;51.762;14.320;2023-01-13T15:54:47;4.23;;;2.10;;
7166;SDS011;3625;51.762;14.320;2023-01-13T15:57:18;3.27;;;2.17;;
7166;SDS011;3625;51.762;14.320;2023-01-13T15:59:53;2.80;;;2.00;;
7166;SDS011;3625;51.762;14.320;2023-01-13T16:02:24;2.13;;;1.93;;
7166;SDS011;3625;51.762;14.320;2023-01-13T16:04:55;3.93;;;2.23;;
7166;SDS011;3625;51.762;14.320;2023-01-13T16:07:24;2.13;;;1.80;;
7166;SDS011;3625;51.762;14.320;2023-01-13T16:09:53;3.60;;;2.30;;
7166;SDS011;3625;51.762;14.320;2023-01-13T16:12:21;2.40;;;1.80;;
7166;SDS011;3625;51.762;14.320;2023-01-13T16:14:50;1.93;;;1.80;;
7166;SDS011;3625;51.762;14.320;2023-01-13T16:17:20;2.73;;;2.27;;
7166;SDS011;3625;51.762;14.320;2023-01-13T16:19:51;2.83;;;2.10;;
7166;SDS011;3625;51.762;14.320;2023-01-13T16:22:20;2.37;;;1.90;;
7166;SDS011;3625;51.762;14.320;2023-01-13T16:24:48;3.60;;;2.00;;
7166;SDS011;3625;51.762;14.320;2023-01-13T16:27:18;7.27;;;2.33;;
7166;SDS011;3625;51.762;14.320;2023-01-13T16:29:53;4.73;;;2.00;;